EGQL/ADX METAR and TAF weather

Enter ICAO airport designator
Station Type Date Time Source
EGQL METAR 2018/04/27 00:50 UTC NOAA

EGQL 270050Z 28007KT CAVOK 04/02 Q1008 BLU


Station Type Date Time Source
EGQL Decoded METAR 2018/04/27 00:50 UTC NOAA

Leuchars, United Kingdom (EGQL) 56-23N 002-52W 0M
Apr 26, 2018 - 08:50 PM EDT / 2018.04.27 0050 UTC
Wind: from the W (280 degrees) at 8 MPH (7 KT):0
Visibility: greater than 7 mile(s):0
Temperature: 39 F (4 C)
Dew Point: 35 F (2 C)
Relative Humidity: 86%
Pressure (altimeter): 29.77 in. Hg (1008 hPa)
ob: EGQL 270050Z 28007KT CAVOK 04/02 Q1008 BLU
cycle: 1

Station Type Date Time Source
EGQL TAF 2011/07/27 06:03 UTC NOAA

TAF TAF
AMD EGQL 270424Z 2706/2724 14005KT 9999 BKN020 PROB30
TEMPO 2706/2708 SCT012
BECMG 2708/2710 SCT025


Example: see airport list